This is the latest recevied weather packets stored in our database for station/object W1LBM. If no packets are shown the sender has not sent any weather packets the latest 10 day(s).
| Time | Temp. | Humidity | Pressure | Rain* | Wind** | Luminosity | Snow |
|---|---|---|---|---|---|---|---|
| 1777313876 | 18.33° C | 39% | 1027 hPa | 0 mm | - | 645 W/m² | - |
| 1777313572 | 18.89° C | 41% | 1027 hPa | 0 mm | - | 648 W/m² | - |
| 1777313270 | 18.33° C | 39% | 1027.2 hPa | 0 mm | - | 652 W/m² | - |
| 1777312966 | 17.78° C | 40% | 1027.1 hPa | 0 mm | - | 660 W/m² | - |
| 1777312663 | 18.33° C | 43% | 1027.1 hPa | 0 mm | - | 664 W/m² | - |
| 1777312360 | 18.33° C | 43% | 1027.1 hPa | 0 mm | - | 670 W/m² | - |
| 1777312057 | 17.78° C | 41% | 1027.2 hPa | 0 mm | - | 673 W/m² | - |
| 1777311754 | 18.89° C | 40% | 1027.2 hPa | 0 mm | - | 678 W/m² | - |
| 1777311451 | 17.78° C | 44% | 1027 hPa | 0 mm | - | 681 W/m² | - |
| 1777311148 | 18.33° C | 41% | 1027.1 hPa | 0 mm | - | 692 W/m² | - |
| 1777310846 | 18.33° C | 40% | 1027.2 hPa | 0 mm | - | 699 W/m² | - |
| 1777310543 | 18.33° C | 40% | 1027.1 hPa | 0 mm | - | 700 W/m² | - |
| 1777310240 | 17.78° C | 40% | 1027.2 hPa | 0 mm | - | 703 W/m² | - |
| 1777309938 | 17.78° C | 42% | 1027.2 hPa | 0 mm | - | 706 W/m² | - |
| 1777309636 | 17.78° C | 41% | 1027.4 hPa | 0 mm | - | 707 W/m² | - |
| 1777309332 | 17.78° C | 43% | 1027.3 hPa | 0 mm | - | 707 W/m² | - |
| 1777309031 | 17.78° C | 42% | 1027.4 hPa | 0 mm | - | 711 W/m² | - |
| 1777308728 | 17.22° C | 41% | 1027.2 hPa | 0 mm | - | 712 W/m² | - |
| 1777308428 | 17.22° C | 42% | 1027.4 hPa | 0 mm | - | 712 W/m² | - |
| 1777308124 | 17.78° C | 42% | 1027.4 hPa | 0 mm | - | 712 W/m² | - |
| 1777307821 | 17.78° C | 42% | 1027.3 hPa | 0 mm | - | 712 W/m² | - |
| 1777307518 | 17.22° C | 43% | 1027.3 hPa | 0 mm | - | 711 W/m² | - |
| 1777307215 | 17.22° C | 42% | 1027.3 hPa | 0 mm | - | 711 W/m² | - |
| 1777306912 | 17.78° C | 41% | 1027.5 hPa | 0 mm | - | 709 W/m² | - |
| 1777306609 | 17.78° C | 42% | 1027.5 hPa | 0 mm | - | 708 W/m² | - |
* Rain latest hour (hover to see other rain measurements)
** Current wind speed in m/s (hover to see current wind gust speed)